Time;durP1;ratioP1;P1;durP2;ratioP2;P2;SDS_P1;SDS_P2;PMS_P1;PMS_P2;Temp;Humidity;BMP_temperature;BMP_pressure;BME280_temperature;BME280_humidity;BME280_pressure;Samples;Min_cycle;Max_cycle;Signal;HPM_P1;HPM_P2
2022/07/10 04:22:41;;;;;;;4.70;2.70;;;;;;;15.80;81.09;100995.94;5109419;27;20327;-69
2022/07/10 04:25:08;;;;;;;3.65;2.67;;;;;;;15.83;81.30;101003.59;5109314;28;20065;-69
2022/07/10 04:27:34;;;;;;;8.40;3.25;;;;;;;15.79;80.93;100998.81;5089023;28;20078;-70
2022/07/10 04:29:59;;;;;;;5.30;3.00;;;;;;;15.79;80.75;101006.88;5088746;28;20412;-69
2022/07/10 04:32:25;;;;;;;6.55;3.20;;;;;;;15.75;80.84;101006.41;5088631;28;20032;-70
2022/07/10 04:34:50;;;;;;;5.78;3.80;;;;;;;15.84;81.13;101005.28;5088983;28;20401;-70
2022/07/10 04:37:16;;;;;;;6.30;3.38;;;;;;;15.92;81.05;101012.41;5088706;28;20089;-70
2022/07/10 04:39:43;;;;;;;5.13;2.58;;;;;;;15.97;80.29;101005.44;5088041;28;20393;-70
2022/07/10 04:42:08;;;;;;;7.90;2.95;;;;;;;15.80;80.17;101001.31;5088906;28;20477;-70
2022/07/10 04:44:36;;;;;;;5.75;2.80;;;;;;;15.83;80.43;100998.25;5088683;28;20051;-69
2022/07/10 04:47:02;;;;;;;3.88;2.53;;;;;;;15.81;80.12;100999.47;5104204;28;20393;-70
2022/07/10 04:49:28;;;;;;;5.45;2.67;;;;;;;15.79;80.26;100994.28;5087811;28;20028;-70
2022/07/10 04:51:54;;;;;;;5.72;3.40;;;;;;;15.83;80.09;100998.25;5088701;28;20069;-70
2022/07/10 04:54:20;;;;;;;6.57;2.78;;;;;;;15.78;79.23;101000.69;5088630;28;20123;-70
2022/07/10 04:56:45;;;;;;;8.90;3.33;;;;;;;15.81;79.84;101008.34;5088591;28;20119;-70
2022/07/10 04:59:11;;;;;;;5.72;3.15;;;;;;;15.85;79.72;101020.41;5087502;28;20107;-70
2022/07/10 05:01:37;;;;;;;6.38;3.15;;;;;;;15.88;79.61;101021.84;5088251;28;20412;-70
2022/07/10 05:04:03;;;;;;;7.90;3.40;;;;;;;15.88;79.74;101021.84;5088447;28;20036;-70
2022/07/10 05:06:29;;;;;;;6.30;3.05;;;;;;;15.87;79.27;101021.03;5088231;28;20409;-70
2022/07/10 05:08:55;;;;;;;6.75;3.08;;;;;;;15.82;79.17;101023.44;5087484;28;20043;-70
2022/07/10 05:11:20;;;;;;;7.05;2.85;;;;;;;15.80;79.23;101030.03;5088171;28;20086;-70
2022/07/10 05:13:48;;;;;;;10.73;5.70;;;;;;;15.93;79.29;101031.03;5088079;28;20043;-70
2022/07/10 05:16:16;;;;;;;7.10;2.92;;;;;;;15.87;78.78;101030.94;5087808;28;20032;-70
2022/07/10 05:18:42;;;;;;;13.35;3.97;;;;;;;15.86;78.49;101030.13;5087322;28;20052;-70
2022/07/10 05:21:08;;;;;;;9.75;3.42;;;;;;;15.88;78.96;101032.59;5087798;28;20040;-70
2022/07/10 05:23:34;;;;;;;6.63;3.13;;;;;;;15.95;78.92;101034.34;5088016;28;20064;-70
2022/07/10 05:25:59;;;;;;;7.18;2.90;;;;;;;15.91;78.29;101037.59;5087905;28;20047;-70
2022/07/10 05:28:25;;;;;;;5.57;3.03;;;;;;;16.00;78.03;101041.84;5087074;28;20439;-70
2022/07/10 05:30:51;;;;;;;5.22;2.95;;;;;;;16.00;78.30;101037.28;5087710;28;20108;-70
2022/07/10 05:33:17;;;;;;;6.32;2.47;;;;;;;15.95;78.09;101034.34;5078630;28;20036;-70
2022/07/10 05:35:42;;;;;;;4.22;3.20;;;;;;;16.00;77.43;101037.28;5074285;28;20044;-70
2022/07/10 05:38:08;;;;;;;6.15;2.60;;;;;;;16.01;76.87;101040.81;5073848;28;20044;-70
2022/07/10 05:40:34;;;;;;;8.85;2.97;;;;;;;16.13;76.57;101043.84;5073575;28;20078;-70
2022/07/10 05:43:00;;;;;;;4.43;2.55;;;;;;;16.09;75.84;101042.56;5074155;28;20056;-70
2022/07/10 05:45:25;;;;;;;8.98;3.00;;;;;;;16.02;76.77;101032.56;5073866;28;20047;-70
2022/07/10 05:47:51;;;;;;;5.70;3.03;;;;;;;16.09;76.06;101034.50;5089502;28;20037;-70
2022/07/10 05:50:16;;;;;;;5.18;2.65;;;;;;;16.17;76.50;101045.97;5073116;28;20116;-70
2022/07/10 05:52:42;;;;;;;7.05;2.83;;;;;;;16.13;75.72;101041.16;5073941;28;20474;-70
2022/07/10 05:55:08;;;;;;;6.40;2.60;;;;;;;16.13;75.38;101042.00;5073900;28;20080;-70
2022/07/10 05:57:34;;;;;;;3.58;2.53;;;;;;;16.11;75.40;101043.22;5073734;28;20044;-70
2022/07/10 05:59:59;;;;;;;5.18;2.88;;;;;;;16.21;75.48;101049.94;5073066;28;20032;-63
2022/07/10 06:02:25;;;;;;;6.85;2.70;;;;;;;16.21;74.91;101047.22;5073508;28;20089;-63
2022/07/10 06:04:51;;;;;;;7.07;2.53;;;;;;;16.29;75.47;101043.59;5089401;28;20077;-63
2022/07/10 06:07:16;;;;;;;6.20;3.20;;;;;;;16.42;75.33;101045.56;5073486;28;20178;-63
2022/07/10 06:09:42;;;;;;;6.70;2.60;;;;;;;16.51;74.96;101053.34;5072902;28;20039;-63
2022/07/10 06:12:08;;;;;;;6.15;3.15;;;;;;;16.48;73.46;101045.63;5073463;28;20044;-62
2022/07/10 06:14:33;;;;;;;9.30;3.17;;;;;;;16.57;73.43;101046.38;5073563;28;20045;-62
2022/07/10 06:16:59;;;;;;;9.55;3.40;;;;;;;16.65;73.25;101051.59;5073159;28;20169;-61
2022/07/10 06:19:24;;;;;;;7.05;2.90;;;;;;;16.62;72.98;101057.34;5072615;28;20033;-62
2022/07/10 06:22:30;;;;;;;5.95;2.95;;;;;;;16.66;73.05;101057.81;5073391;28;20032;-60
2022/07/10 06:24:35;;;;;;;5.70;2.67;;;;;;;16.65;73.64;101064.22;5073311;28;20044;-62
2022/07/10 06:27:00;;;;;;;5.18;3.03;;;;;;;16.63;72.59;101068.97;5073268;28;20089;-61
2022/07/10 06:29:26;;;;;;;9.52;2.65;;;;;;;16.47;72.19;101057.44;5071217;28;20094;-60
2022/07/10 06:31:51;;;;;;;5.50;2.95;;;;;;;16.45;72.81;101075.63;5073177;28;20037;-61
2022/07/10 06:34:17;;;;;;;7.65;2.92;;;;;;;16.49;73.04;101079.56;5073116;28;20043;-62
2022/07/10 06:36:42;;;;;;;6.15;2.72;;;;;;;16.57;72.59;101075.13;5072936;28;20455;-62
2022/07/10 06:39:07;;;;;;;4.43;2.65;;;;;;;16.57;72.45;101081.31;5066164;28;20075;-62
2022/07/10 06:41:33;;;;;;;4.10;2.78;;;;;;;16.57;73.60;101083.19;5072242;28;20045;-62
2022/07/10 06:44:00;;;;;;;5.30;2.83;;;;;;;16.62;73.29;101089.63;5071491;28;20042;-62
2022/07/10 06:46:26;;;;;;;4.72;3.25;;;;;;;16.48;72.54;101094.03;5070709;28;20048;-62
2022/07/10 06:48:52;;;;;;;6.97;4.53;;;;;;;16.48;72.39;101088.66;5071410;28;20036;-62
2022/07/10 06:51:17;;;;;;;11.05;3.80;;;;;;;16.54;72.42;101090.59;5072348;28;20071;-63
2022/07/10 06:53:43;;;;;;;5.78;3.90;;;;;;;16.55;72.22;101089.56;5071807;28;20040;-62
2022/07/10 06:56:08;;;;;;;6.15;3.35;;;;;;;16.52;72.22;101091.81;5072247;28;20401;-62
2022/07/10 06:58:34;;;;;;;5.95;3.10;;;;;;;16.56;71.89;101090.41;5071047;28;20094;-62
2022/07/10 07:00:59;;;;;;;5.30;2.90;;;;;;;16.64;71.30;101084.06;5070646;28;20029;-62
2022/07/10 07:03:25;;;;;;;6.20;3.88;;;;;;;16.64;71.55;101078.69;5071797;28;20051;-62
2022/07/10 07:05:50;;;;;;;6.13;3.20;;;;;;;16.68;71.50;101080.78;5071920;28;20122;-62
2022/07/10 07:08:16;;;;;;;6.43;2.78;;;;;;;16.58;70.45;101074.09;5071389;28;20034;-62
2022/07/10 07:10:41;;;;;;;8.63;3.47;;;;;;;16.54;70.30;101084.38;5071461;28;20409;-62
2022/07/10 07:13:09;;;;;;;6.72;3.30;;;;;;;16.72;70.03;101079.41;5071755;28;20039;-62
2022/07/10 07:15:38;;;;;;;3.83;2.72;;;;;;;16.66;70.01;101084.72;5071856;28;20063;-62
2022/07/10 07:18:15;;;;;;;5.78;2.80;;;;;;;16.46;69.37;101089.91;5071551;28;20095;-63
2022/07/10 07:23:25;;;;;;;8.90;3.38;;;;;;;16.55;69.47;101073.44;5071495;28;20098;-62
2022/07/10 07:25:51;;;;;;;9.60;3.00;;;;;;;16.64;70.03;101081.38;5071643;28;20033;-62
2022/07/10 07:28:18;;;;;;;4.90;2.92;;;;;;;16.78;69.94;101083.19;5069814;28;20040;-62
2022/07/10 07:30:44;;;;;;;4.03;2.55;;;;;;;16.93;69.12;101083.94;5071181;28;20471;-62
2022/07/10 07:33:10;;;;;;;6.57;3.05;;;;;;;16.77;67.03;101077.00;5071523;28;20040;-62
2022/07/10 07:35:35;;;;;;;5.38;2.80;;;;;;;16.81;66.80;101077.41;5071409;28;20090;-62
2022/07/10 07:38:02;;;;;;;4.78;2.40;;;;;;;16.91;67.18;101086.00;5069655;28;20124;-62
2022/07/10 07:40:28;;;;;;;12.00;5.22;;;;;;;16.92;65.58;101079.59;5070701;28;20063;-62
2022/07/10 07:42:54;;;;;;;5.20;2.90;;;;;;;17.04;65.20;101083.41;5071247;28;20040;-62
2022/07/10 07:45:20;;;;;;;12.82;7.25;;;;;;;17.12;66.72;101089.69;5071317;28;20036;-62
2022/07/10 07:47:57;;;;;;;8.40;3.15;;;;;;;17.00;65.32;101087.50;5071055;28;20046;-62
2022/07/10 07:50:32;;;;;;;4.97;2.90;;;;;;;17.00;66.49;101092.91;5071036;28;20430;-62
2022/07/10 07:52:58;;;;;;;7.15;2.92;;;;;;;17.13;66.46;101091.34;5070649;28;20434;-62
2022/07/10 07:55:23;;;;;;;6.93;2.72;;;;;;;17.22;67.00;101093.69;5070868;28;20052;-63
2022/07/10 07:57:53;;;;;;;13.18;4.38;;;;;;;17.29;66.28;101091.88;5070953;28;20075;-63
2022/07/10 08:00:19;;;;;;;5.53;2.50;;;;;;;17.27;64.58;101093.09;5070371;28;20036;-63
2022/07/10 08:02:45;;;;;;;6.38;3.22;;;;;;;17.40;64.96;101078.88;5070834;28;20046;-62
2022/07/10 08:05:10;;;;;;;5.28;2.47;;;;;;;17.52;62.19;101086.22;5070929;28;20139;-62
2022/07/10 08:07:37;;;;;;;5.47;2.47;;;;;;;17.51;61.77;101086.41;5071171;28;20454;-62
2022/07/10 08:10:04;;;;;;;5.78;2.58;;;;;;;17.69;63.41;101077.81;5070736;28;20037;-62
2022/07/10 08:12:30;;;;;;;3.47;2.25;;;;;;;17.74;62.43;101078.91;5069813;28;20166;-62
2022/07/10 08:14:55;;;;;;;6.95;2.75;;;;;;;17.89;61.80;101074.22;5070021;28;20115;-62
2022/07/10 08:17:21;;;;;;;2.90;2.13;;;;;;;17.93;61.53;101076.50;5071365;28;20503;-62
2022/07/10 08:19:47;;;;;;;6.03;2.15;;;;;;;17.92;61.23;101070.25;5071084;28;20060;-59
2022/07/10 08:22:12;;;;;;;4.13;2.22;;;;;;;17.93;62.04;101071.97;5071219;28;20527;-62
2022/07/10 08:24:38;;;;;;;4.13;2.13;;;;;;;17.94;61.50;101062.84;5071294;28;20508;-62
2022/07/10 08:27:06;;;;;;;4.75;2.00;;;;;;;17.81;59.86;101062.78;5071173;28;20055;-62
2022/07/10 08:29:31;;;;;;;5.90;2.45;;;;;;;17.99;60.87;101071.13;5070965;28;20041;-62
2022/07/10 08:31:56;;;;;;;5.05;2.13;;;;;;;18.03;59.76;101069.69;5071204;28;20131;-61
2022/07/10 08:34:22;;;;;;;4.63;2.00;;;;;;;18.15;60.89;101072.66;5069883;28;20071;-60
2022/07/10 08:36:47;;;;;;;3.08;2.10;;;;;;;18.18;60.64;101072.22;5071310;28;20105;-61
2022/07/10 08:39:15;;;;;;;3.42;2.28;;;;;;;18.30;59.67;101067.06;5070970;28;20036;-62
2022/07/10 08:41:42;;;;;;;4.53;1.92;;;;;;;18.34;58.38;101063.78;5071029;28;20044;-62
2022/07/10 08:44:08;;;;;;;;;;;;;;;18.51;58.19;101071.47;5071384;28;20106;-62
2022/07/10 08:46:35;;;;;;;4.80;2.30;;;;;;;18.59;56.92;101069.41;5070914;28;19913;-62
2022/07/10 08:49:09;;;;;;;4.23;2.10;;;;;;;18.57;55.89;101074.16;5070790;28;20063;-62
2022/07/10 08:51:45;;;;;;;5.10;1.75;;;;;;;18.47;55.22;101068.38;5071132;28;20518;-62
2022/07/10 08:54:13;;;;;;;3.75;2.10;;;;;;;18.62;56.39;101057.38;5070982;28;20123;-62
2022/07/10 08:56:40;;;;;;;3.53;1.90;;;;;;;18.79;56.40;101049.75;5070769;28;20048;-62
2022/07/10 08:59:07;;;;;;;7.22;1.98;;;;;;;19.09;57.80;101050.94;5070908;28;20405;-62
2022/07/10 09:01:33;;;;;;;3.75;1.95;;;;;;;19.27;54.63;101057.59;5070906;28;20028;-62
2022/07/10 09:03:59;;;;;;;4.90;1.70;;;;;;;19.23;53.15;101062.56;5070949;28;20504;-62
2022/07/10 09:06:27;;;;;;;2.38;1.63;;;;;;;19.39;54.44;101055.91;5070870;28;20044;-62
2022/07/10 09:09:02;;;;;;;6.07;1.70;;;;;;;18.88;52.81;101056.59;5073340;28;20036;-62
2022/07/10 09:11:31;;;;;;;4.50;1.98;;;;;;;18.92;52.65;101055.13;5074618;28;20032;-62
2022/07/10 09:14:07;;;;;;;2.33;1.55;;;;;;;19.11;53.03;101058.88;5074614;28;20060;-62
2022/07/10 09:16:34;;;;;;;2.85;1.50;;;;;;;19.46;52.75;101067.50;5074416;28;20562;-62
2022/07/10 09:19:27;;;;;;;4.30;1.60;;;;;;;19.63;51.29;101067.94;5074623;28;20052;-62
2022/07/10 09:22:06;;;;;;;2.58;1.38;;;;;;;19.77;53.17;101080.34;5074541;28;20102;-58
2022/07/10 09:24:45;;;;;;;1.83;1.30;;;;;;;19.76;55.13;101057.06;5074361;28;20036;-60
2022/07/10 09:27:14;;;;;;;5.85;1.70;;;;;;;20.04;50.12;101059.44;5090011;28;20044;-59
2022/07/10 09:29:56;;;;;;;4.07;1.52;;;;;;;20.41;50.59;101059.59;5074025;28;20060;-58
2022/07/10 09:32:21;;;;;;;2.50;1.15;;;;;;;20.74;48.15;101059.44;5074391;28;20058;-58
2022/07/10 09:37:39;;;;;;;2.33;1.10;;;;;;;20.60;46.11;101069.50;5074095;28;20534;-63
2022/07/10 09:40:07;;;;;;;3.80;1.20;;;;;;;20.37;45.69;101067.34;5073833;28;20108;-60
2022/07/10 09:42:33;;;;;;;3.70;1.10;;;;;;;20.00;46.23;101074.41;5089524;28;20043;-62
2022/07/10 09:45:17;;;;;;;3.83;1.30;;;;;;;19.85;46.85;101079.28;5074109;28;20036;-61
2022/07/10 09:47:48;;;;;;;2.25;0.95;;;;;;;20.23;47.79;101069.31;5073986;28;20170;-62
2022/07/10 09:50:26;;;;;;;2.40;1.02;;;;;;;20.69;46.54;101067.38;5073744;28;20056;-57
2022/07/10 09:52:59;;;;;;;2.28;0.82;;;;;;;21.09;44.96;101062.44;5074000;28;20075;-60
2022/07/10 09:55:29;;;;;;;4.93;1.20;;;;;;;21.12;43.91;101057.38;5074035;28;20028;-60
2022/07/10 09:57:59;;;;;;;3.40;1.20;;;;;;;21.40;44.29;101058.84;5073767;28;20037;-60
2022/07/10 10:00:27;;;;;;;1.73;0.88;;;;;;;21.60;42.98;101053.19;5073456;28;20044;-60
2022/07/10 10:03:01;;;;;;;1.73;1.25;;;;;;;21.90;43.23;101056.75;5073381;28;20252;-58
2022/07/10 10:05:45;;;;;;;3.08;1.08;;;;;;;22.07;41.75;101058.84;5073642;28;20040;-62
2022/07/10 10:08:22;;;;;;;1.30;0.77;;;;;;;22.36;44.24;101055.31;5073624;28;20098;-62
2022/07/10 10:10:49;;;;;;;1.33;0.98;;;;;;;22.25;43.25;101053.41;5073677;28;20036;-60
2022/07/10 10:13:20;;;;;;;4.20;0.80;;;;;;;22.63;40.11;101044.06;5073540;28;20047;-62
2022/07/10 10:15:48;;;;;;;3.97;0.80;;;;;;;22.26;39.08;101041.50;5073308;28;20553;-62
2022/07/10 10:18:17;;;;;;;2.72;1.10;;;;;;;22.42;40.08;101048.97;5073243;28;20127;-63
2022/07/10 10:20:45;;;;;;;2.08;0.85;;;;;;;22.66;40.19;101049.03;5073076;28;20162;-61
2022/07/10 10:23:17;;;;;;;3.28;1.05;;;;;;;22.92;39.80;101045.91;5073625;28;20108;-63
2022/07/10 10:25:42;;;;;;;3.13;0.77;;;;;;;23.16;38.95;101046.72;5073387;28;20043;-63
2022/07/10 10:28:10;;;;;;;1.40;0.90;;;;;;;23.44;36.89;101042.44;5073290;28;20040;-60
2022/07/10 10:30:46;;;;;;;3.10;0.70;;;;;;;23.63;36.65;101046.69;5073450;28;20040;-63
2022/07/10 10:33:43;;;;;;;3.33;0.70;;;;;;;24.02;37.51;101042.31;5073297;28;20094;-64
2022/07/10 10:36:14;;;;;;;2.58;0.88;;;;;;;24.28;37.30;101035.44;5073057;28;20401;-63
2022/07/10 10:38:53;;;;;;;3.08;1.17;;;;;;;24.06;36.04;101024.44;5072611;28;20086;-63
2022/07/10 10:41:33;;;;;;;2.22;0.80;;;;;;;23.91;35.59;101029.56;5072824;28;20537;-63
2022/07/10 10:44:15;;;;;;;3.75;0.80;;;;;;;24.32;35.26;101033.88;5072958;28;20563;-64
2022/07/10 10:46:50;;;;;;;3.90;0.80;;;;;;;23.82;34.28;101020.97;5072858;28;20123;-64
2022/07/10 10:49:18;;;;;;;3.20;1.38;;;;;;;24.22;35.59;101028.25;5072505;28;20039;-64
2022/07/10 10:52:00;;;;;;;5.60;1.23;;;;;;;24.52;34.19;101024.44;5072907;28;20033;-64
2022/07/10 10:54:31;;;;;;;1.85;0.70;;;;;;;24.53;33.88;101018.75;5072752;28;20036;-63
2022/07/10 10:57:11;;;;;;;2.75;0.93;;;;;;;25.24;33.61;101020.94;5072522;28;20486;-63
2022/07/10 10:59:51;;;;;;;2.10;1.27;;;;;;;24.85;33.62;101026.34;5072066;28;20068;-63
2022/07/10 11:02:37;;;;;;;3.08;1.27;;;;;;;24.76;33.83;101015.03;5072439;28;20048;-64
2022/07/10 11:05:12;;;;;;;1.92;0.70;;;;;;;25.31;33.03;101021.59;5072447;28;20150;-64
2022/07/10 11:07:58;;;;;;;1.65;0.98;;;;;;;25.46;33.25;101021.78;5072406;28;20111;-63
2022/07/10 11:10:26;;;;;;;3.22;0.95;;;;;;;25.61;35.36;101011.03;5072140;28;20425;-62
2022/07/10 11:13:12;;;;;;;1.65;0.80;;;;;;;26.30;32.93;101009.63;5072396;28;20029;-63
2022/07/10 11:15:43;;;;;;;2.95;1.42;;;;;;;26.20;34.25;101015.81;5072180;28;20047;-65
2022/07/10 11:18:09;;;;;;;4.10;1.02;;;;;;;26.07;32.12;101016.22;5087824;28;20555;-64
2022/07/10 11:20:41;;;;;;;2.47;0.73;;;;;;;25.86;32.01;101015.19;5071844;28;20040;-64
2022/07/10 11:23:12;;;;;;;1.40;0.68;;;;;;;25.53;33.99;101008.78;5072293;28;20039;-64
2022/07/10 11:25:50;;;;;;;3.90;1.10;;;;;;;26.18;32.18;101007.88;5072059;28;20138;-65
2022/07/10 11:28:21;;;;;;;2.70;0.77;;;;;;;25.94;31.35;101012.00;5078820;28;20047;-49
2022/07/10 11:30:54;;;;;;;2.08;0.60;;;;;;;25.97;32.47;101012.31;5069168;28;20037;-51
2022/07/10 11:33:21;;;;;;;3.13;0.93;;;;;;;26.15;30.66;101008.41;5074975;28;20032;-52
2022/07/10 11:35:48;;;;;;;1.73;1.30;;;;;;;26.16;32.72;101001.88;5069617;28;20054;-49
2022/07/10 11:38:28;;;;;;;3.15;1.27;;;;;;;25.85;30.17;100997.16;5063398;28;20398;-49
2022/07/10 11:40:54;;;;;;;2.95;0.85;;;;;;;26.30;31.39;101004.16;5074173;28;20036;-49
2022/07/10 11:43:23;;;;;;;3.50;1.45;;;;;;;26.77;30.83;100996.91;5074263;28;20051;-53
2022/07/10 11:45:54;;;;;;;4.53;1.00;;;;;;;26.87;30.72;100992.63;5074309;28;20132;-53
2022/07/10 11:48:23;;;;;;;1.92;0.80;;;;;;;26.28;30.48;100995.38;5078285;28;20114;-50
2022/07/10 11:50:50;;;;;;;0.63;0.43;;;;;;;26.17;29.70;100995.31;5087097;28;20182;-54
2022/07/10 11:53:26;;;;;;;2.17;1.00;;;;;;;26.51;32.11;100995.09;5087442;28;20029;-51
2022/07/10 11:55:52;;;;;;;1.43;0.80;;;;;;;27.14;30.43;100998.00;5071728;28;20078;-53
2022/07/10 11:58:19;;;;;;;2.70;1.07;;;;;;;26.91;28.48;100994.56;5073325;28;20481;-55
2022/07/10 12:00:58;;;;;;;1.90;0.60;;;;;;;26.62;30.25;101002.28;5083687;28;20109;-47
2022/07/10 12:03:23;;;;;;;3.85;0.80;;;;;;;27.58;29.46;100998.47;5071872;28;20433;-49
2022/07/10 12:05:52;;;;;;;3.58;0.90;;;;;;;26.97;28.15;100990.75;5071088;28;20032;-51
2022/07/10 12:08:18;;;;;;;2.13;0.73;;;;;;;27.33;28.22;100992.91;5071293;28;20067;-52
2022/07/10 12:10:44;;;;;;;3.28;0.82;;;;;;;27.78;29.07;100982.16;5073035;28;20055;-51
2022/07/10 12:13:14;;;;;;;2.90;0.65;;;;;;;27.70;29.16;100995.53;5053452;28;20378;-51
2022/07/10 12:15:45;;;;;;;2.67;1.05;;;;;;;27.68;30.18;100990.34;5071146;28;20047;-50
2022/07/10 12:18:21;;;;;;;1.13;0.68;;;;;;;27.95;28.77;100992.03;5071197;28;20040;-54
2022/07/10 12:20:49;;;;;;;1.63;0.70;;;;;;;28.52;28.78;100985.53;5073121;28;20060;-50
2022/07/10 12:23:16;;;;;;;1.90;0.60;;;;;;;27.79;28.81;100985.72;5084633;28;20098;-48
2022/07/10 12:25:45;;;;;;;1.63;0.50;;;;;;;28.03;28.58;100991.50;5070888;28;20029;-46
2022/07/10 12:28:14;;;;;;;1.98;1.02;;;;;;;27.99;28.62;100985.75;5069648;28;20054;-50
2022/07/10 12:30:49;;;;;;;4.68;0.80;;;;;;;28.43;29.49;100982.53;5071118;28;20040;-50
2022/07/10 12:33:22;;;;;;;2.45;0.80;;;;;;;28.51;27.98;100984.72;5069830;28;20036;-51
2022/07/10 12:35:58;;;;;;;0.90;0.60;;;;;;;28.61;26.54;100981.13;5081299;28;20055;-48
2022/07/10 12:38:31;;;;;;;1.30;0.60;;;;;;;27.96;27.40;100967.13;5064635;28;20040;-51
2022/07/10 12:41:12;;;;;;;3.60;0.88;;;;;;;27.95;28.70;100981.91;5087965;28;20691;-52
2022/07/10 12:43:38;;;;;;;1.02;0.60;;;;;;;28.03;28.50;100978.63;5082178;28;20063;-52
2022/07/10 12:46:24;;;;;;;1.83;0.60;;;;;;;28.06;27.48;100972.63;5083335;28;20063;-53
2022/07/10 12:49:08;;;;;;;5.13;1.00;;;;;;;27.58;29.64;100987.50;5073434;28;20054;-53
2022/07/10 12:51:40;;;;;;;2.30;0.68;;;;;;;27.28;29.23;100978.13;5074995;28;20071;-66
2022/07/10 12:54:05;;;;;;;1.50;0.70;;;;;;;27.99;29.65;100982.19;5075186;28;20044;-66
2022/07/10 12:56:37;;;;;;;3.88;1.05;;;;;;;27.84;30.64;100981.09;5074836;28;20033;-66
2022/07/10 12:59:12;;;;;;;1.58;0.80;;;;;;;28.42;27.95;100985.53;5072455;28;20040;-65
2022/07/10 13:01:45;;;;;;;1.85;1.00;;;;;;;28.37;28.11;100983.63;5075051;28;20481;-66
2022/07/10 13:04:11;;;;;;;3.72;1.30;;;;;;;28.81;28.21;100972.88;5074945;28;20040;-67
2022/07/10 13:06:39;;;;;;;1.23;0.60;;;;;;;28.86;26.85;100978.34;5074876;28;20115;-66
2022/07/10 13:09:25;;;;;;;2.88;0.60;;;;;;;28.56;29.18;100975.66;5074476;28;20036;-66
2022/07/10 13:11:52;;;;;;;1.20;0.70;;;;;;;28.73;28.05;100970.72;5074752;28;20043;-66
2022/07/10 13:14:19;;;;;;;1.20;0.60;;;;;;;28.35;28.23;100966.63;5074733;28;20032;-68
2022/07/10 13:16:44;;;;;;;0.75;0.60;;;;;;;27.99;27.93;100966.59;5073419;28;20464;-66
2022/07/10 13:19:10;;;;;;;3.10;0.70;;;;;;;26.77;28.84;100961.41;5072959;28;20140;-68
2022/07/10 13:21:36;;;;;;;2.05;0.65;;;;;;;26.71;30.63;100973.38;5074512;28;20045;-65
2022/07/10 13:24:05;;;;;;;2.40;0.75;;;;;;;26.32;31.64;100963.75;5074553;28;20040;-65
2022/07/10 13:26:31;;;;;;;1.55;0.70;;;;;;;26.06;32.61;100954.53;5074268;28;20115;-67
2022/07/10 13:28:57;;;;;;;1.97;1.00;;;;;;;26.21;31.71;100962.84;5074160;28;20036;-66
2022/07/10 13:31:23;;;;;;;2.10;0.80;;;;;;;26.14;31.56;100952.13;5074311;28;20040;-65
2022/07/10 13:33:48;;;;;;;1.70;0.82;;;;;;;25.82;32.25;100959.47;5074265;28;20101;-66
2022/07/10 13:36:14;;;;;;;1.95;0.80;;;;;;;25.41;33.16;100959.81;5074041;28;20032;-65
2022/07/10 13:38:42;;;;;;;2.67;0.77;;;;;;;25.10;33.21;100955.03;5074225;28;20029;-65
2022/07/10 13:41:08;;;;;;;2.70;0.85;;;;;;;25.45;35.09;100951.97;5074205;28;20085;-66
2022/07/10 13:43:34;;;;;;;1.95;1.17;;;;;;;25.64;33.48;100960.63;5074209;28;20040;-64
2022/07/10 13:46:01;;;;;;;2.30;0.90;;;;;;;25.28;32.17;100962.09;5074070;28;20071;-65
2022/07/10 13:48:27;;;;;;;1.08;0.70;;;;;;;25.26;32.23;100954.19;5073753;28;20123;-64
2022/07/10 13:50:53;;;;;;;0.98;0.77;;;;;;;25.30;33.07;100951.75;5074013;28;20044;-65
2022/07/10 13:53:19;;;;;;;4.35;1.00;;;;;;;25.45;33.75;100957.41;5073562;28;20044;-66
2022/07/10 13:55:45;;;;;;;2.85;0.80;;;;;;;24.86;33.69;100959.88;5073851;28;20037;-67
2022/07/10 13:58:11;;;;;;;2.10;1.00;;;;;;;24.77;34.68;100954.00;5073747;28;20044;-67
2022/07/10 14:00:38;;;;;;;4.53;1.33;;;;;;;24.55;35.25;100961.31;5073771;28;20528;-66
2022/07/10 14:03:04;;;;;;;3.92;1.00;;;;;;;24.39;35.56;100945.78;5074554;28;20631;-65
2022/07/10 14:05:30;;;;;;;1.58;1.00;;;;;;;24.46;36.55;100949.19;5074025;28;20085;-66
2022/07/10 14:07:56;;;;;;;2.53;1.10;;;;;;;24.70;35.23;100955.25;5073836;28;20040;-67
2022/07/10 14:10:21;;;;;;;1.30;0.80;;;;;;;24.71;35.14;100944.13;5073418;28;20126;-65
2022/07/10 14:12:47;;;;;;;1.70;1.02;;;;;;;24.33;35.56;100947.59;5073520;28;20146;-67
2022/07/10 14:15:13;;;;;;;2.65;0.80;;;;;;;24.11;35.51;100955.66;5073379;28;20055;-64
2022/07/10 14:17:38;;;;;;;1.60;0.82;;;;;;;24.02;35.62;100951.69;5073331;28;20136;-64
2022/07/10 14:20:04;;;;;;;2.22;1.20;;;;;;;23.97;35.31;100949.69;5073110;28;20036;-64
2022/07/10 14:22:30;;;;;;;6.88;0.98;;;;;;;23.73;36.48;100953.59;5073357;28;20049;-64
2022/07/10 14:24:56;;;;;;;3.00;0.98;;;;;;;23.90;36.51;100959.09;5072029;28;20051;-65
2022/07/10 14:27:24;;;;;;;2.67;1.00;;;;;;;23.95;36.36;100948.31;5073209;28;20064;-65
2022/07/10 14:29:50;;;;;;;1.52;1.00;;;;;;;23.76;36.15;100939.53;5072838;28;20036;-67
2022/07/10 14:32:15;;;;;;;2.40;1.05;;;;;;;23.78;36.42;100954.53;5073033;28;20032;-64
2022/07/10 14:34:41;;;;;;;2.80;1.10;;;;;;;23.96;36.76;100948.06;5072012;28;20571;-64
2022/07/10 14:37:06;;;;;;;1.65;1.20;;;;;;;24.00;36.05;100943.78;5073050;28;20040;-65
2022/07/10 14:39:31;;;;;;;2.05;1.10;;;;;;;24.12;37.42;100945.59;5072673;28;20048;-64
2022/07/10 14:41:57;;;;;;;3.80;1.30;;;;;;;24.17;36.39;100935.63;5073051;28;20090;-65
2022/07/10 14:44:22;;;;;;;1.17;1.00;;;;;;;23.69;36.57;100947.84;5072969;28;20217;-66
2022/07/10 14:46:48;;;;;;;2.47;1.00;;;;;;;23.42;37.14;100941.28;5072816;28;20045;-66
2022/07/10 14:49:14;;;;;;;2.80;1.20;;;;;;;23.47;37.59;100936.78;5072520;28;20041;-66
2022/07/10 14:51:39;;;;;;;2.40;1.38;;;;;;;23.04;37.55;100942.66;5071868;28;20044;-66
2022/07/10 14:54:05;;;;;;;2.95;1.20;;;;;;;23.15;38.32;100946.44;5072801;28;20489;-66
2022/07/10 14:56:30;;;;;;;1.95;1.00;;;;;;;23.39;39.11;100941.75;5072706;28;20028;-66
2022/07/10 14:58:55;;;;;;;2.80;1.13;;;;;;;23.41;38.32;100945.03;5071132;28;20043;-66
2022/07/10 15:01:21;;;;;;;1.17;0.93;;;;;;;23.42;37.97;100952.97;5072663;28;20255;-66
2022/07/10 15:03:46;;;;;;;1.13;1.00;;;;;;;22.96;39.24;100948.47;5071389;28;20406;-67
2022/07/10 15:06:12;;;;;;;2.40;0.90;;;;;;;23.14;38.97;100955.63;5071797;28;20055;-66
2022/07/10 15:08:38;;;;;;;1.27;0.98;;;;;;;23.05;38.43;100952.47;5072147;28;20036;-66
2022/07/10 15:11:04;;;;;;;2.85;1.20;;;;;;;22.87;38.20;100948.00;5072260;28;20123;-66
2022/07/10 15:13:30;;;;;;;3.05;1.20;;;;;;;23.11;38.96;100950.69;5072624;28;20541;-66
2022/07/10 15:15:56;;;;;;;1.88;1.17;;;;;;;23.11;39.30;100950.69;5072239;28;20029;-66
2022/07/10 15:18:21;;;;;;;2.00;1.17;;;;;;;22.93;39.10;100946.22;5071898;28;20527;-67
2022/07/10 15:20:47;;;;;;;2.60;1.30;;;;;;;22.81;39.67;100950.78;5072134;28;20037;-66
2022/07/10 15:23:13;;;;;;;2.55;1.40;;;;;;;23.00;39.14;100947.75;5072310;28;20047;-66
2022/07/10 15:25:42;;;;;;;3.28;1.42;;;;;;;23.10;39.89;100947.16;5072206;28;20041;-66
2022/07/10 15:28:09;;;;;;;3.40;1.27;;;;;;;22.69;39.24;100942.66;5071918;28;20040;-66
2022/07/10 15:30:36;;;;;;;2.88;1.40;;;;;;;22.89;39.21;100935.03;5071904;28;20039;-66
2022/07/10 15:33:02;;;;;;;4.45;1.95;;;;;;;22.94;39.16;100945.16;5072167;28;20041;-66
2022/07/10 15:35:28;;;;;;;2.35;1.60;;;;;;;23.09;39.17;100941.97;5072033;28;20089;-66
2022/07/10 15:37:54;;;;;;;3.05;1.33;;;;;;;23.05;38.42;100938.06;5071918;28;20036;-66
2022/07/10 15:40:19;;;;;;;1.75;1.25;;;;;;;22.91;38.80;100942.94;5071454;28;20069;-67
2022/07/10 15:42:45;;;;;;;3.50;1.50;;;;;;;22.86;39.74;100943.63;5071821;28;20041;-66
2022/07/10 15:45:10;;;;;;;2.55;1.33;;;;;;;22.93;40.82;100941.59;5071840;28;20497;-66
2022/07/10 15:47:36;;;;;;;3.00;1.30;;;;;;;22.72;40.05;100926.72;5071764;28;20048;-66
2022/07/10 15:50:02;;;;;;;2.97;1.30;;;;;;;22.82;40.54;100928.00;5071566;28;20032;-66
2022/07/10 15:52:28;;;;;;;2.17;1.20;;;;;;;22.95;40.65;100930.50;5071634;28;20496;-66
2022/07/10 15:54:53;;;;;;;2.30;1.30;;;;;;;22.90;40.39;100928.53;5071656;28;20044;-66
2022/07/10 15:57:19;;;;;;;3.53;1.30;;;;;;;22.77;40.04;100928.75;5071629;28;20497;-67